Time;durP1;ratioP1;P1;durP2;ratioP2;P2;SDS_P1;SDS_P2;PMS_P1;PMS_P2;Temp;Humidity;BMP_temperature;BMP_pressure;BME280_temperature;BME280_humidity;BME280_pressure;Samples;Min_cycle;Max_cycle;Signal;HPM_P1;HPM_P2
2022/04/27 00:02:01;;;;;;;3.95;2.28;;;14.60;96.70;;;;;;5071976;28;20040;-82
2022/04/27 00:04:30;;;;;;;4.13;1.88;;;14.60;96.70;;;;;;5071766;28;20419;-81
2022/04/27 00:06:58;;;;;;;4.03;1.60;;;14.60;96.70;;;;;;5062323;28;20111;-82
2022/04/27 00:09:27;;;;;;;3.88;1.80;;;14.50;96.70;;;;;;5051964;28;20521;-82
2022/04/27 00:11:59;;;;;;;3.30;1.85;;;14.50;96.70;;;;;;5069717;28;20136;-81
2022/04/27 00:14:28;;;;;;;4.63;1.85;;;14.40;96.70;;;;;;5055389;28;20277;-81
2022/04/27 00:16:56;;;;;;;2.80;1.73;;;14.40;96.70;;;;;;5056992;28;20066;-81
2022/04/27 00:19:27;;;;;;;4.95;1.83;;;14.40;96.70;;;;;;5058270;28;20040;-81
2022/04/27 00:21:55;;;;;;;4.07;2.03;;;14.40;96.70;;;;;;5074208;28;20052;-82
2022/04/27 00:24:23;;;;;;;4.18;1.75;;;14.40;96.70;;;;;;5066411;28;20044;-82
2022/04/27 00:26:52;;;;;;;2.88;1.77;;;14.40;96.70;;;;;;5061188;28;20043;-80
2022/04/27 00:29:19;;;;;;;6.53;2.00;;;14.40;96.70;;;;;;5056256;28;20637;-81
2022/04/27 00:31:47;;;;;;;3.85;1.67;;;14.20;96.70;;;;;;5055995;28;20158;-81
2022/04/27 00:34:15;;;;;;;2.45;1.40;;;14.10;96.70;;;;;;5055209;28;20597;-81
2022/04/27 00:36:45;;;;;;;2.08;1.35;;;13.90;96.70;;;;;;5069446;28;20549;-81
2022/04/27 00:39:13;;;;;;;3.83;1.38;;;13.80;96.70;;;;;;5082402;28;20048;-83
2022/04/27 00:41:58;;;;;;;4.18;1.58;;;13.70;96.70;;;;;;5072556;28;20136;-82
2022/04/27 00:44:27;;;;;;;3.15;1.55;;;13.80;96.70;;;;;;5056440;28;20043;-82
2022/04/27 00:46:55;;;;;;;3.92;1.85;;;13.90;96.70;;;;;;5057706;28;20117;-81
2022/04/27 00:49:23;;;;;;;2.92;1.90;;;13.90;96.70;;;;;;5073171;28;20044;-81
2022/04/27 00:51:53;;;;;;;4.22;2.13;;;13.90;96.70;;;;;;5057713;28;20052;-82
2022/04/27 00:54:22;;;;;;;4.18;2.50;;;13.80;96.70;;;;;;5060104;28;20052;-80
2022/04/27 00:56:50;;;;;;;3.90;2.35;;;13.80;96.70;;;;;;5051729;28;20167;-82
2022/04/27 00:59:18;;;;;;;4.30;2.47;;;13.80;96.70;;;;;;5043679;28;20470;-81
2022/04/27 01:01:46;;;;;;;4.13;2.22;;;13.80;96.70;;;;;;5049764;28;20046;-82
2022/04/27 01:04:15;;;;;;;3.55;2.58;;;13.80;96.70;;;;;;5072524;28;20376;-82
2022/04/27 01:06:43;;;;;;;6.35;2.72;;;13.80;96.70;;;;;;5064791;28;20045;-82
2022/04/27 01:09:13;;;;;;;6.63;3.25;;;13.80;96.70;;;;;;5065344;28;20040;-81
2022/04/27 01:11:41;;;;;;;4.95;2.95;;;13.80;96.70;;;;;;5052924;28;20465;-81
2022/04/27 01:14:09;;;;;;;3.72;2.70;;;13.80;96.70;;;;;;5061428;28;20098;-82
2022/04/27 01:16:37;;;;;;;6.38;3.40;;;13.70;96.70;;;;;;5065072;28;20049;-81
2022/04/27 01:19:06;;;;;;;5.22;2.83;;;13.80;96.70;;;;;;5057655;28;20514;-81
2022/04/27 01:21:38;;;;;;;5.97;3.10;;;13.90;96.70;;;;;;5062119;28;20044;-82
2022/04/27 01:24:07;;;;;;;4.78;2.97;;;13.80;96.70;;;;;;5074790;28;20052;-81
2022/04/27 01:26:35;;;;;;;4.32;3.08;;;13.80;96.70;;;;;;5058543;28;20058;-81
2022/04/27 01:29:02;;;;;;;5.78;3.30;;;13.80;96.70;;;;;;5075396;28;20048;-81
2022/04/27 01:31:31;;;;;;;6.35;3.10;;;13.80;96.70;;;;;;5071570;28;20046;-81
2022/04/27 01:33:59;;;;;;;5.43;3.38;;;13.90;96.70;;;;;;5072523;28;20049;-81
2022/04/27 01:36:26;;;;;;;4.15;3.40;;;13.90;96.70;;;;;;5053721;28;20130;-81
2022/04/27 01:38:56;;;;;;;4.53;3.05;;;13.90;96.70;;;;;;5062471;28;20528;-82
2022/04/27 01:41:23;;;;;;;4.63;3.15;;;13.90;96.70;;;;;;5063040;28;20565;-81
2022/04/27 01:43:51;;;;;;;8.02;3.58;;;13.90;96.70;;;;;;5052894;28;20052;-81
2022/04/27 01:46:19;;;;;;;4.25;2.92;;;13.80;96.70;;;;;;5071264;28;20501;-82
2022/04/27 01:48:47;;;;;;;6.05;3.85;;;13.80;96.70;;;;;;5070213;28;20049;-81
2022/04/27 01:51:15;;;;;;;5.45;3.30;;;13.90;96.70;;;;;;5053388;28;20041;-81
2022/04/27 01:56:31;;;;;;;5.00;3.10;;;14.00;96.70;;;;;;5061655;28;20520;-80
2022/04/27 01:58:59;;;;;;;4.72;2.60;;;13.90;96.70;;;;;;5067933;28;20080;-82
2022/04/27 02:01:27;;;;;;;4.40;2.40;;;13.90;96.70;;;;;;5060751;28;20066;-81
2022/04/27 02:03:58;;;;;;;5.15;2.72;;;13.90;96.70;;;;;;5073652;28;20102;-86
2022/04/27 02:06:27;;;;;;;5.32;2.80;;;13.90;96.70;;;;;;5063260;28;20747;-85
2022/04/27 02:08:55;;;;;;;3.75;2.28;;;13.90;96.70;;;;;;5056986;28;20049;-85
2022/04/27 02:11:27;;;;;;;4.35;2.40;;;13.90;96.70;;;;;;5082099;28;20044;-86
2022/04/27 02:14:04;;;;;;;4.03;2.67;;;13.90;96.70;;;;;;5070557;28;20114;-85
2022/04/27 02:16:34;;;;;;;6.10;2.85;;;13.90;96.70;;;;;;5055920;28;20055;-86
2022/04/27 02:19:04;;;;;;;3.90;2.30;;;13.90;96.70;;;;;;5066681;28;20048;-85
2022/04/27 02:21:32;;;;;;;4.88;2.95;;;14.00;96.70;;;;;;5073000;28;20041;-85
2022/04/27 02:24:00;;;;;;;5.03;2.50;;;14.00;96.70;;;;;;5078667;28;21622;-85
2022/04/27 02:26:28;;;;;;;6.88;3.00;;;14.00;96.70;;;;;;5067352;28;20153;-86
2022/04/27 02:28:58;;;;;;;3.03;2.50;;;14.00;96.70;;;;;;5049668;28;20051;-85
2022/04/27 02:31:29;;;;;;;4.03;2.88;;;13.80;96.70;;;;;;5073371;28;20615;-86
2022/04/27 02:33:57;;;;;;;3.85;2.65;;;13.80;96.70;;;;;;5061667;28;20040;-84
2022/04/27 02:36:26;;;;;;;5.45;2.58;;;13.80;96.70;;;;;;5079188;28;20613;-86
2022/04/27 02:38:55;;;;;;;5.40;3.05;;;13.90;96.70;;;;;;5077850;28;20045;-85
2022/04/27 02:41:23;;;;;;;5.00;2.42;;;13.90;96.70;;;;;;5063191;28;20052;-85
2022/04/27 02:43:51;;;;;;;4.00;2.58;;;13.90;96.70;;;;;;5071003;28;20592;-84
2022/04/27 02:46:20;;;;;;;5.00;2.75;;;13.90;96.70;;;;;;5047766;28;20135;-85
2022/04/27 02:51:49;;;;;;;4.57;2.42;;;13.90;96.70;;;;;;5074456;28;20094;-85
2022/04/27 02:54:44;;;;;;;5.60;2.72;;;13.90;96.70;;;;;;5080804;28;20637;-85
2022/04/27 02:57:13;;;;;;;4.22;2.70;;;13.80;96.70;;;;;;5074506;28;20118;-85
2022/04/27 02:59:41;;;;;;;4.70;2.60;;;13.80;96.70;;;;;;5079340;28;20517;-86
2022/04/27 03:02:11;;;;;;;5.63;2.83;;;13.80;96.70;;;;;;5056619;28;20536;-86
2022/04/27 03:04:41;;;;;;;3.03;2.20;;;13.70;96.70;;;;;;5078501;28;20425;-86
2022/04/27 03:07:09;;;;;;;3.05;2.30;;;13.60;96.70;;;;;;5078884;28;20134;-86
2022/04/27 03:09:44;;;;;;;4.43;2.47;;;13.60;96.70;;;;;;5075226;28;20051;-86
2022/04/27 03:12:12;;;;;;;3.88;2.60;;;13.50;96.70;;;;;;5080035;28;20588;-86
2022/04/27 03:14:43;;;;;;;6.13;2.80;;;13.60;96.70;;;;;;5062972;28;20048;-86
2022/04/27 03:17:11;;;;;;;3.70;2.47;;;13.60;96.70;;;;;;5074576;28;20048;-86
2022/04/27 03:19:41;;;;;;;4.20;2.53;;;13.50;96.70;;;;;;5072794;28;20106;-84
2022/04/27 03:22:12;;;;;;;4.45;2.67;;;13.60;96.70;;;;;;5043085;28;20049;-85
2022/04/27 03:24:39;;;;;;;3.88;2.60;;;13.60;96.70;;;;;;5049589;28;20056;-85
2022/04/27 03:27:19;;;;;;;6.10;2.75;;;13.50;96.70;;;;;;5073653;28;20139;-86
2022/04/27 03:29:48;;;;;;;3.00;2.60;;;13.60;96.70;;;;;;5058327;28;20048;-85
2022/04/27 03:32:17;;;;;;;6.32;2.30;;;13.50;96.70;;;;;;5053313;28;20048;-84
2022/04/27 03:34:54;;;;;;;4.43;2.17;;;13.50;96.70;;;;;;5063623;28;20519;-85
2022/04/27 03:37:26;;;;;;;4.10;2.58;;;13.60;96.70;;;;;;5061991;28;20048;-85
2022/04/27 03:39:53;;;;;;;4.20;2.53;;;13.50;96.70;;;;;;5079977;28;20148;-85
2022/04/27 03:42:23;;;;;;;3.53;2.47;;;13.40;96.70;;;;;;5052478;28;20076;-86
2022/04/27 03:44:58;;;;;;;3.55;2.35;;;13.40;96.70;;;;;;5079515;28;20044;-85
2022/04/27 03:47:30;;;;;;;3.92;2.05;;;13.40;96.70;;;;;;5075066;28;20040;-86
2022/04/27 03:50:04;;;;;;;3.72;2.20;;;13.30;96.70;;;;;;5065916;28;20513;-85
2022/04/27 03:52:48;;;;;;;2.75;2.10;;;13.20;96.70;;;;;;5051259;28;20055;-85
2022/04/27 03:55:16;;;;;;;3.90;2.47;;;13.20;96.70;;;;;;5049643;28;20147;-85
2022/04/27 03:57:47;;;;;;;4.03;2.50;;;13.20;96.70;;;;;;5079345;28;20067;-86
2022/04/27 04:00:17;;;;;;;6.57;2.40;;;13.30;96.70;;;;;;5050166;28;20063;-84
2022/04/27 04:02:49;;;;;;;4.65;2.72;;;13.30;96.70;;;;;;5082640;28;20055;-84
2022/04/27 04:05:19;;;;;;;4.72;2.60;;;13.40;96.70;;;;;;5050620;28;20410;-86
2022/04/27 04:07:47;;;;;;;5.05;2.88;;;13.40;96.70;;;;;;5082497;28;20075;-85
2022/04/27 04:10:15;;;;;;;6.18;3.20;;;13.30;96.70;;;;;;5055320;28;20041;-85
2022/04/27 04:12:47;;;;;;;4.10;2.22;;;13.30;96.70;;;;;;5083107;28;20514;-84
2022/04/27 04:15:37;;;;;;;4.45;2.75;;;13.40;96.70;;;;;;5061347;28;20142;-86
2022/04/27 04:18:27;;;;;;;6.65;2.97;;;13.40;96.70;;;;;;5063489;28;20118;-84
2022/04/27 04:21:17;;;;;;;5.00;2.88;;;13.40;96.70;;;;;;5071764;28;20492;-86
2022/04/27 04:24:03;;;;;;;5.00;2.65;;;13.40;96.70;;;;;;5057257;28;20052;-86
2022/04/27 04:29:23;;;;;;;5.50;2.95;;;13.40;96.70;;;;;;5058939;28;20049;-85
2022/04/27 04:31:53;;;;;;;4.35;2.58;;;13.30;96.70;;;;;;5066789;28;20041;-85
2022/04/27 04:34:59;;;;;;;5.32;2.88;;;13.30;96.70;;;;;;5037633;28;20049;-87
2022/04/27 04:37:28;;;;;;;3.67;2.83;;;13.40;96.70;;;;;;5031711;28;20168;-84
2022/04/27 04:39:56;;;;;;;3.90;2.83;;;13.30;96.70;;;;;;5031340;28;20342;-86
2022/04/27 04:42:29;;;;;;;3.25;2.70;;;13.30;96.70;;;;;;5075127;28;20060;-86
2022/04/27 04:44:57;;;;;;;5.03;3.28;;;13.40;96.70;;;;;;5062125;28;20150;-85
2022/04/27 04:47:51;;;;;;;4.78;2.90;;;13.40;96.70;;;;;;5063512;28;20515;-85
2022/04/27 04:50:40;;;;;;;5.15;3.05;;;13.40;96.70;;;;;;5059579;28;20055;-85
2022/04/27 04:53:42;;;;;;;4.53;3.15;;;13.40;96.70;;;;;;5031065;28;20142;-85
2022/04/27 04:56:10;;;;;;;5.78;3.03;;;13.50;96.70;;;;;;5061451;28;20091;-84
2022/04/27 04:58:52;;;;;;;4.53;2.60;;;13.60;96.70;;;;;;5058893;28;20048;-85
2022/04/27 05:01:20;;;;;;;5.00;2.45;;;13.60;96.70;;;;;;5060782;28;20049;-85
2022/04/27 05:04:10;;;;;;;5.60;3.20;;;13.50;96.70;;;;;;5045995;28;20044;-85
2022/04/27 05:06:52;;;;;;;4.68;2.70;;;13.50;96.70;;;;;;5061255;28;20903;-86
2022/04/27 05:09:40;;;;;;;4.28;3.10;;;13.60;96.70;;;;;;5065456;28;20047;-85
2022/04/27 05:12:28;;;;;;;4.55;2.70;;;13.60;96.70;;;;;;5059588;28;20036;-85
2022/04/27 05:15:12;;;;;;;5.00;3.10;;;13.70;96.70;;;;;;5072192;28;20045;-85
2022/04/27 05:17:45;;;;;;;4.68;2.88;;;13.70;96.70;;;;;;5057890;28;20052;-85
2022/04/27 05:20:24;;;;;;;5.28;3.42;;;13.70;96.70;;;;;;5064766;28;20044;-85
2022/04/27 05:23:14;;;;;;;5.60;3.43;;;13.60;96.70;;;;;;5062152;28;20619;-85
2022/04/27 05:26:12;;;;;;;6.13;2.97;;;13.60;96.70;;;;;;5008405;28;20049;-85
2022/04/27 05:31:55;;;;;;;5.32;3.05;;;13.70;96.70;;;;;;5081317;28;20557;-85
2022/04/27 05:34:45;;;;;;;5.80;2.72;;;13.80;96.70;;;;;;5055082;28;20766;-85
2022/04/27 05:37:22;;;;;;;4.25;3.13;;;13.80;96.70;;;;;;5062400;28;20036;-85
2022/04/27 05:40:06;;;;;;;4.10;3.15;;;13.90;96.70;;;;;;5060782;28;20076;-84
2022/04/27 05:42:59;;;;;;;5.10;2.80;;;14.00;96.70;;;;;;5057937;28;20063;-85
2022/04/27 05:45:46;;;;;;;6.78;2.88;;;13.90;96.70;;;;;;5061234;28;20521;-85
2022/04/27 05:48:33;;;;;;;4.35;3.00;;;13.90;96.70;;;;;;5060821;28;20145;-86
2022/04/27 05:51:13;;;;;;;5.72;3.17;;;14.00;96.70;;;;;;5060452;28;20048;-85
2022/04/27 05:53:53;;;;;;;4.93;2.88;;;14.00;96.70;;;;;;5078424;28;20541;-86
2022/04/27 05:56:40;;;;;;;5.15;2.75;;;14.00;96.70;;;;;;5052109;28;20575;-86
2022/04/27 05:59:10;;;;;;;5.30;3.00;;;14.00;96.70;;;;;;5056255;28;20622;-85
2022/04/27 06:01:55;;;;;;;;;;;14.10;96.70;;;;;;5066022;28;20822;-85
2022/04/27 06:04:26;;;;;;;6.25;2.95;;;14.10;96.70;;;;;;5054597;28;19935;-82
2022/04/27 06:06:54;;;;;;;7.70;3.28;;;14.10;96.70;;;;;;5041692;28;20045;-83
2022/04/27 06:09:23;;;;;;;8.68;3.30;;;14.10;96.70;;;;;;5065192;28;20049;-85
2022/04/27 06:11:59;;;;;;;6.07;2.97;;;14.20;96.70;;;;;;5079219;28;20059;-84
2022/04/27 06:14:43;;;;;;;6.78;2.67;;;14.30;96.70;;;;;;5054701;28;20044;-84
2022/04/27 06:17:33;;;;;;;7.05;2.90;;;14.30;96.70;;;;;;5061784;28;20063;-83
2022/04/27 06:20:04;;;;;;;5.32;2.92;;;14.40;96.70;;;;;;5065208;28;20086;-84
2022/04/27 06:22:31;;;;;;;4.35;2.95;;;14.50;96.70;;;;;;5057552;28;20098;-83
2022/04/27 06:24:59;;;;;;;5.95;3.33;;;14.60;96.70;;;;;;5054044;28;20662;-85
2022/04/27 06:27:41;;;;;;;5.13;3.55;;;14.60;96.70;;;;;;5071475;28;20060;-82
2022/04/27 06:30:12;;;;;;;6.18;3.40;;;14.70;96.70;;;;;;5073146;28;20398;-82
2022/04/27 06:32:40;;;;;;;6.03;3.65;;;14.70;96.70;;;;;;5074723;28;20143;-81
2022/04/27 06:35:13;;;;;;;5.57;3.67;;;14.80;96.70;;;;;;5054928;28;20064;-82
2022/04/27 06:37:48;;;;;;;7.18;4.05;;;14.90;96.70;;;;;;5064494;28;20557;-80
2022/04/27 06:40:17;;;;;;;6.88;3.65;;;14.90;96.70;;;;;;5041686;28;20059;-80
2022/04/27 06:42:46;;;;;;;8.40;4.05;;;14.90;96.70;;;;;;5056264;28;20056;-80
2022/04/27 06:45:38;;;;;;;6.53;3.78;;;15.00;96.70;;;;;;5061406;28;20063;-82
2022/04/27 06:48:24;;;;;;;6.32;4.10;;;15.00;96.70;;;;;;5069142;28;21153;-81
2022/04/27 06:51:11;;;;;;;9.03;3.53;;;15.20;96.70;;;;;;5055327;28;21268;-81
2022/04/27 06:53:58;;;;;;;5.38;3.25;;;15.30;96.70;;;;;;5054949;28;20052;-81
2022/04/27 06:56:44;;;;;;;5.95;3.83;;;15.30;96.70;;;;;;5059863;28;20063;-80
2022/04/27 06:59:12;;;;;;;6.10;3.97;;;15.50;96.70;;;;;;5054068;28;20086;-80
2022/04/27 07:01:44;;;;;;;8.48;3.90;;;15.50;96.70;;;;;;5048132;28;20060;-82
2022/04/27 07:04:13;;;;;;;6.10;3.88;;;15.60;96.70;;;;;;5053883;28;20601;-82
2022/04/27 07:06:41;;;;;;;8.50;4.75;;;15.70;96.70;;;;;;5055664;28;20048;-80
2022/04/27 07:09:11;;;;;;;7.85;4.38;;;15.70;96.70;;;;;;5048316;28;21587;-83
2022/04/27 07:11:42;;;;;;;7.03;4.25;;;15.70;96.70;;;;;;5069388;28;20551;-83
2022/04/27 07:14:10;;;;;;;8.75;4.65;;;15.70;96.70;;;;;;5059502;28;20045;-83
2022/04/27 07:16:38;;;;;;;8.98;5.03;;;15.70;96.70;;;;;;5066591;28;20044;-82
2022/04/27 07:19:07;;;;;;;8.27;4.65;;;15.70;96.70;;;;;;5058532;28;20064;-84
2022/04/27 07:21:35;;;;;;;10.38;5.00;;;15.80;96.70;;;;;;5082343;28;20041;-83
2022/04/27 07:24:04;;;;;;;6.50;4.55;;;15.90;96.70;;;;;;5062575;28;20048;-85
2022/04/27 07:26:32;;;;;;;8.57;4.43;;;16.00;96.70;;;;;;5057876;28;20041;-85
2022/04/27 07:29:00;;;;;;;8.93;5.00;;;16.10;96.70;;;;;;5065749;28;20059;-84
2022/04/27 07:31:28;;;;;;;7.40;4.40;;;16.10;96.70;;;;;;5057348;28;20048;-83
2022/04/27 07:33:56;;;;;;;8.07;4.75;;;16.20;96.70;;;;;;5061500;28;20044;-83
2022/04/27 07:36:26;;;;;;;7.45;4.45;;;16.30;96.70;;;;;;5049925;28;20080;-83
2022/04/27 07:38:57;;;;;;;6.38;4.03;;;16.30;96.70;;;;;;5072944;28;20041;-83
2022/04/27 07:41:25;;;;;;;7.57;4.38;;;16.50;96.70;;;;;;5064295;28;20041;-83
2022/04/27 07:43:53;;;;;;;7.03;4.22;;;16.60;96.70;;;;;;5061194;28;20144;-83
2022/04/27 07:46:21;;;;;;;8.30;4.60;;;16.50;96.70;;;;;;5075912;28;20513;-83
2022/04/27 07:48:51;;;;;;;7.50;4.20;;;16.50;96.70;;;;;;5077534;28;20045;-84
2022/04/27 07:51:19;;;;;;;6.72;4.10;;;16.70;96.70;;;;;;5058877;28;20123;-85
2022/04/27 07:53:49;;;;;;;6.20;4.07;;;16.60;96.70;;;;;;5061338;28;20102;-85
2022/04/27 07:56:16;;;;;;;5.57;4.13;;;16.60;96.70;;;;;;5055969;28;20121;-85
2022/04/27 07:58:44;;;;;;;6.20;5.00;;;16.60;96.70;;;;;;5060635;28;20117;-83
2022/04/27 08:01:12;;;;;;;7.30;4.32;;;16.70;96.70;;;;;;5071981;28;20489;-84
2022/04/27 08:03:40;;;;;;;6.50;4.45;;;16.70;96.70;;;;;;5055075;28;20565;-84
2022/04/27 08:06:08;;;;;;;5.78;4.05;;;16.70;96.70;;;;;;5059847;28;20482;-84
2022/04/27 08:08:37;;;;;;;7.75;4.22;;;16.80;96.70;;;;;;5059667;28;20048;-84
2022/04/27 08:11:07;;;;;;;6.88;4.00;;;16.80;96.70;;;;;;5075802;28;20131;-85
2022/04/27 08:13:35;;;;;;;8.13;3.80;;;16.80;96.70;;;;;;5066124;28;20417;-84
2022/04/27 08:16:04;;;;;;;5.70;3.97;;;16.80;96.70;;;;;;5062700;28;20045;-84
2022/04/27 08:18:34;;;;;;;9.68;4.70;;;16.80;96.70;;;;;;5063428;28;20570;-85
2022/04/27 08:21:15;;;;;;;6.97;3.67;;;16.80;96.70;;;;;;5079498;28;20040;-85
2022/04/27 08:23:46;;;;;;;6.53;4.18;;;16.80;96.70;;;;;;5064056;28;20040;-85
2022/04/27 08:26:16;;;;;;;7.13;4.03;;;16.80;96.70;;;;;;5060955;28;20514;-85
2022/04/27 08:28:45;;;;;;;5.07;3.92;;;16.90;96.70;;;;;;5058394;28;20044;-84
2022/04/27 08:31:15;;;;;;;5.85;4.10;;;17.10;96.70;;;;;;5079391;28;20037;-85
2022/04/27 08:33:43;;;;;;;5.13;3.58;;;17.10;96.70;;;;;;5056908;28;20048;-84
2022/04/27 08:36:11;;;;;;;6.55;2.90;;;17.30;96.70;;;;;;5062900;28;20037;-84
2022/04/27 08:38:57;;;;;;;4.63;3.15;;;17.50;96.70;;;;;;5076206;28;20055;-85
2022/04/27 08:41:28;;;;;;;6.32;3.65;;;17.50;96.70;;;;;;5073745;28;20048;-84
2022/04/27 08:43:56;;;;;;;5.38;2.88;;;17.40;96.70;;;;;;5039973;28;20063;-84
2022/04/27 08:46:26;;;;;;;9.10;3.45;;;17.50;96.70;;;;;;5057587;28;20041;-85
2022/04/27 08:48:54;;;;;;;6.47;3.20;;;17.50;96.70;;;;;;5054222;28;20136;-84
2022/04/27 08:51:23;;;;;;;4.93;3.05;;;17.60;96.70;;;;;;5076957;28;20040;-85
2022/04/27 08:53:51;;;;;;;5.10;2.63;;;17.70;96.70;;;;;;5064406;28;20490;-84
2022/04/27 08:56:19;;;;;;;4.95;2.72;;;17.70;96.70;;;;;;5062841;28;20053;-84
2022/04/27 08:58:49;;;;;;;5.75;3.17;;;17.70;96.70;;;;;;5053259;28;20041;-85
2022/04/27 09:01:17;;;;;;;5.97;2.75;;;17.80;96.70;;;;;;5064515;28;20051;-85
2022/04/27 09:03:46;;;;;;;4.30;3.03;;;17.80;96.70;;;;;;5064505;28;20054;-84
2022/04/27 09:06:16;;;;;;;4.93;3.13;;;18.00;96.70;;;;;;5069942;28;20048;-85
2022/04/27 09:08:45;;;;;;;3.20;2.58;;;18.10;96.70;;;;;;5059528;28;20044;-85
2022/04/27 09:11:18;;;;;;;3.47;2.90;;;18.10;96.70;;;;;;5058819;28;20059;-85
2022/04/27 09:13:54;;;;;;;3.97;2.65;;;18.20;96.70;;;;;;5060724;28;20070;-85
2022/04/27 09:16:24;;;;;;;5.57;2.58;;;18.30;96.70;;;;;;5058237;28;20049;-83
2022/04/27 09:21:59;;;;;;;5.80;2.63;;;18.30;96.70;;;;;;5055435;28;20505;-85
2022/04/27 09:24:29;;;;;;;5.20;2.30;;;18.50;96.70;;;;;;5062328;28;20498;-85
2022/04/27 09:26:59;;;;;;;4.28;2.55;;;18.60;96.70;;;;;;5053597;28;20046;-85
2022/04/27 09:29:29;;;;;;;5.78;2.88;;;18.50;96.70;;;;;;5071833;28;20056;-84
2022/04/27 09:31:58;;;;;;;6.05;2.63;;;18.50;96.70;;;;;;5057006;28;20087;-84
2022/04/27 09:34:29;;;;;;;5.55;2.63;;;18.60;96.70;;;;;;5081592;28;20045;-84
2022/04/27 09:37:02;;;;;;;5.90;2.30;;;18.70;96.70;;;;;;5063339;28;20047;-85
2022/04/27 09:39:30;;;;;;;4.82;1.80;;;18.70;96.70;;;;;;5037146;28;20053;-85
2022/04/27 09:42:06;;;;;;;3.92;2.08;;;18.60;96.70;;;;;;5060265;28;20541;-85
2022/04/27 09:44:37;;;;;;;4.65;2.03;;;18.70;96.70;;;;;;5058333;28;20044;-84
2022/04/27 09:47:06;;;;;;;4.80;1.80;;;18.70;96.70;;;;;;5060252;28;20041;-85
2022/04/27 09:49:39;;;;;;;3.53;1.52;;;18.70;96.70;;;;;;5076612;28;20047;-84
2022/04/27 09:52:07;;;;;;;4.30;1.38;;;18.80;96.70;;;;;;5080332;28;20071;-85
2022/04/27 09:54:36;;;;;;;3.75;1.52;;;18.90;96.70;;;;;;5069547;28;20041;-86
2022/04/27 09:57:06;;;;;;;3.20;1.35;;;18.90;96.70;;;;;;5066117;28;20056;-84
2022/04/27 09:59:36;;;;;;;1.60;1.27;;;19.00;96.70;;;;;;5055325;28;20040;-84
2022/04/27 10:02:07;;;;;;;4.00;1.40;;;19.20;96.70;;;;;;5059718;28;20524;-84
2022/04/27 10:04:37;;;;;;;4.03;1.15;;;19.50;96.70;;;;;;5059789;28;20502;-85
2022/04/27 10:07:10;;;;;;;4.38;1.40;;;19.70;96.70;;;;;;5079903;28;20044;-85
2022/04/27 10:09:43;;;;;;;4.20;1.70;;;19.70;96.70;;;;;;5052777;28;20540;-84
2022/04/27 10:12:11;;;;;;;1.58;0.95;;;19.70;96.70;;;;;;5076940;28;20556;-84
2022/04/27 10:14:42;;;;;;;2.55;1.10;;;19.90;96.70;;;;;;5063537;28;20048;-84
2022/04/27 10:17:11;;;;;;;3.28;1.13;;;20.10;96.70;;;;;;5076785;28;20505;-84
2022/04/27 10:19:44;;;;;;;3.85;1.20;;;20.20;96.70;;;;;;5071802;28;20048;-84
2022/04/27 10:22:26;;;;;;;2.85;1.27;;;20.40;96.70;;;;;;5072057;28;20063;-84
2022/04/27 10:24:55;;;;;;;1.75;0.80;;;20.60;96.70;;;;;;5053804;28;20041;-84
2022/04/27 10:27:26;;;;;;;2.40;0.85;;;20.60;96.70;;;;;;5059066;28;20051;-84
2022/04/27 10:30:00;;;;;;;3.20;1.20;;;20.80;96.70;;;;;;5060712;28;20668;-84
2022/04/27 10:32:40;;;;;;;3.60;1.00;;;20.80;96.70;;;;;;5062119;28;20048;-84
2022/04/27 10:35:19;;;;;;;1.80;0.98;;;20.70;96.70;;;;;;5059453;28;20045;-85
2022/04/27 10:38:02;;;;;;;3.10;0.80;;;20.60;96.70;;;;;;5076908;28;20498;-85
2022/04/27 10:40:32;;;;;;;2.13;0.80;;;20.60;96.70;;;;;;5052766;28;20059;-85
2022/04/27 10:43:09;;;;;;;2.15;0.80;;;20.70;96.70;;;;;;5053385;28;20400;-85
2022/04/27 10:45:41;;;;;;;1.10;0.60;;;20.70;96.70;;;;;;5074269;28;20060;-85
2022/04/27 10:48:15;;;;;;;3.42;1.02;;;20.80;96.70;;;;;;5063387;28;20048;-84
2022/04/27 10:51:01;;;;;;;2.40;0.80;;;20.80;96.70;;;;;;5038350;28;20446;-84
2022/04/27 10:53:38;;;;;;;2.05;0.70;;;20.90;96.70;;;;;;5055265;28;20059;-85
2022/04/27 10:56:27;;;;;;;1.63;0.70;;;20.90;96.70;;;;;;5076110;28;20048;-84
2022/04/27 10:58:54;;;;;;;2.35;0.95;;;21.00;96.70;;;;;;5077143;28;20036;-85
2022/04/27 11:01:29;;;;;;;3.35;0.80;;;21.00;96.70;;;;;;5061456;28;20040;-83
2022/04/27 11:04:09;;;;;;;1.20;0.80;;;21.30;96.70;;;;;;5057959;28;20035;-84
2022/04/27 11:07:25;;;;;;;3.05;0.98;;;21.70;96.70;;;;;;5056356;28;20143;-84
2022/04/27 11:10:12;;;;;;;3.90;1.17;;;22.00;96.70;;;;;;5067628;28;20054;-82
2022/04/27 11:12:42;;;;;;;2.83;0.90;;;22.20;96.70;;;;;;5062587;28;20253;-82
2022/04/27 11:15:22;;;;;;;2.17;0.80;;;22.40;96.70;;;;;;5060494;28;20658;-82
2022/04/27 11:17:59;;;;;;;3.10;0.80;;;22.20;96.70;;;;;;5075609;28;20044;-82
2022/04/27 11:20:33;;;;;;;2.22;0.80;;;22.30;96.70;;;;;;5076150;28;21712;-81
2022/04/27 11:23:07;;;;;;;2.00;0.90;;;22.30;96.70;;;;;;5072569;28;20040;-81
2022/04/27 11:25:37;;;;;;;2.22;0.85;;;22.40;96.70;;;;;;5055067;28;20059;-82
2022/04/27 11:28:06;;;;;;;2.03;0.90;;;22.40;96.70;;;;;;5064524;28;20102;-82
2022/04/27 11:30:35;;;;;;;3.20;0.95;;;22.40;96.70;;;;;;5078174;28;20040;-82
2022/04/27 11:33:05;;;;;;;1.60;0.63;;;22.40;96.70;;;;;;5078004;28;20059;-82
2022/04/27 11:35:40;;;;;;;3.28;0.70;;;22.50;96.70;;;;;;5039009;28;20044;-82
2022/04/27 11:38:08;;;;;;;2.28;0.55;;;22.40;96.30;;;;;;5061726;28;20106;-82
2022/04/27 11:40:39;;;;;;;2.60;0.70;;;22.60;96.00;;;;;;5076239;28;20133;-81
2022/04/27 11:43:07;;;;;;;1.83;0.85;;;22.70;96.00;;;;;;5056419;28;20060;-83
2022/04/27 11:45:35;;;;;;;2.25;0.75;;;23.00;96.70;;;;;;5056564;28;20049;-82
2022/04/27 11:48:07;;;;;;;2.00;0.90;;;23.00;95.80;;;;;;5074891;28;20061;-82
2022/04/27 11:50:37;;;;;;;3.13;0.98;;;23.10;96.40;;;;;;5044133;28;20055;-83
2022/04/27 11:53:07;;;;;;;3.17;1.00;;;23.20;96.70;;;;;;5067415;28;20086;-83
2022/04/27 11:55:36;;;;;;;2.63;0.77;;;23.30;96.30;;;;;;5072032;28;20049;-82
2022/04/27 11:58:06;;;;;;;1.70;0.63;;;23.40;94.30;;;;;;5066278;28;20076;-83
2022/04/27 12:00:34;;;;;;;2.63;0.73;;;23.50;94.00;;;;;;5067664;28;20048;-83
2022/04/27 12:03:05;;;;;;;1.65;0.80;;;23.50;93.60;;;;;;5068481;28;20044;-83
2022/04/27 12:05:35;;;;;;;1.92;0.90;;;23.60;94.30;;;;;;5060466;28;20052;-82
2022/04/27 12:08:11;;;;;;;2.45;0.90;;;23.70;94.30;;;;;;5060680;28;20036;-81
2022/04/27 12:10:40;;;;;;;2.13;0.90;;;23.70;94.40;;;;;;5057013;28;20127;-81
2022/04/27 12:13:09;;;;;;;2.10;0.80;;;23.60;94.40;;;;;;5059528;28;20148;-82
2022/04/27 12:15:41;;;;;;;2.17;1.00;;;23.80;94.80;;;;;;5050988;28;20131;-81
2022/04/27 12:18:16;;;;;;;2.35;1.10;;;23.90;93.60;;;;;;5057715;28;20060;-81
2022/04/27 12:20:45;;;;;;;2.05;0.90;;;24.00;94.30;;;;;;5062130;28;20078;-82
2022/04/27 12:23:14;;;;;;;2.13;0.70;;;24.20;94.50;;;;;;5039939;28;20052;-82
2022/04/27 12:25:44;;;;;;;3.05;1.00;;;24.10;93.90;;;;;;5059932;28;20056;-82
2022/04/27 12:28:15;;;;;;;1.63;0.80;;;24.00;93.50;;;;;;5056842;28;20505;-82
2022/04/27 12:30:48;;;;;;;2.70;0.95;;;23.90;93.20;;;;;;5058171;28;20041;-82
2022/04/27 12:33:20;;;;;;;2.55;0.80;;;23.80;93.30;;;;;;5052461;28;20037;-82
2022/04/27 12:38:54;;;;;;;1.58;0.70;;;23.80;94.00;;;;;;5057783;28;20044;-83
2022/04/27 12:41:32;;;;;;;2.45;0.73;;;24.00;93.50;;;;;;5083412;28;20048;-82
2022/04/27 12:44:05;;;;;;;2.33;0.65;;;24.10;90.40;;;;;;5075618;28;20052;-81
2022/04/27 12:46:58;;;;;;;0.90;0.70;;;24.00;89.90;;;;;;5056457;28;20041;-82
2022/04/27 12:49:29;;;;;;;2.92;0.77;;;24.30;89.70;;;;;;5055700;28;20152;-81
2022/04/27 12:52:12;;;;;;;1.83;0.60;;;24.20;89.70;;;;;;5072962;28;20424;-82
2022/04/27 12:54:41;;;;;;;1.55;0.82;;;24.00;89.30;;;;;;5059607;28;20095;-82
2022/04/27 12:57:08;;;;;;;2.28;0.70;;;24.10;90.40;;;;;;5077740;28;20041;-82
2022/04/27 12:59:54;;;;;;;1.30;0.70;;;24.20;89.20;;;;;;5067157;28;20063;-82
2022/04/27 13:02:22;;;;;;;0.63;0.50;;;24.30;88.30;;;;;;5075898;28;20045;-82
2022/04/27 13:04:52;;;;;;;1.30;0.70;;;24.40;87.90;;;;;;5059278;28;20048;-83
2022/04/27 13:07:20;;;;;;;1.50;0.95;;;24.30;88.40;;;;;;5053771;28;20522;-83
2022/04/27 13:12:35;;;;;;;1.00;0.50;;;24.70;87.50;;;;;;5056785;28;20505;-82
2022/04/27 13:15:05;;;;;;;2.65;0.75;;;24.70;88.50;;;;;;5055261;28;20041;-82
2022/04/27 13:17:33;;;;;;;2.78;0.80;;;24.90;87.90;;;;;;5074756;28;20072;-82
2022/04/27 13:20:04;;;;;;;1.55;0.73;;;24.90;87.10;;;;;;5060979;28;20041;-82
2022/04/27 13:22:32;;;;;;;1.60;0.55;;;25.00;88.30;;;;;;5049349;28;20053;-82
2022/04/27 13:25:00;;;;;;;2.03;0.70;;;25.00;86.10;;;;;;5058974;28;20057;-82
2022/04/27 13:27:28;;;;;;;2.45;1.10;;;25.00;84.90;;;;;;5036556;28;20048;-82
2022/04/27 13:29:56;;;;;;;2.30;0.63;;;25.30;84.10;;;;;;5039075;28;20139;-83
2022/04/27 13:32:24;;;;;;;1.48;0.65;;;25.40;82.90;;;;;;5054738;28;20469;-83
2022/04/27 13:34:52;;;;;;;1.55;0.70;;;25.60;85.00;;;;;;5060015;28;20084;-82
2022/04/27 13:37:25;;;;;;;2.55;1.00;;;25.70;84.10;;;;;;5055339;28;20537;-83